Time;durP1;ratioP1;P1;durP2;ratioP2;P2;SDS_P1;SDS_P2;PMS_P1;PMS_P2;Temp;Humidity;BMP_temperature;BMP_pressure;BME280_temperature;BME280_humidity;BME280_pressure;Samples;Min_cycle;Max_cycle;Signal;HPM_P1;HPM_P2
2023/08/21 00:00:54;;;;;;;;;;;;;;;20.05;47.73;96194.59;4982895;28;19929;-75
2023/08/21 00:03:20;;;;;;;;;;;;;;;19.96;47.52;96188.69;4990876;28;20020;-75
2023/08/21 00:05:45;;;;;;;;;;;;;;;19.87;48.18;96193.50;4982987;28;19984;-75
2023/08/21 00:08:10;;;;;;;;;;;;;;;19.83;48.29;96190.44;5009454;28;19921;-75
2023/08/21 00:10:38;;;;;;;;;;;;;;;19.93;47.98;96189.09;4996792;28;19964;-75
2023/08/21 00:13:04;;;;;;;;;;;;;;;19.90;48.17;96184.97;5014472;28;19917;-75
2023/08/21 00:15:30;;;;;;;;;;;;;;;19.89;48.26;96186.03;4984059;28;20113;-75
2023/08/21 00:17:55;;;;;;;;;;;;;;;19.76;48.39;96186.16;4978837;28;20013;-72
2023/08/21 00:20:20;;;;;;;;;;;;;;;19.65;48.92;96179.63;4992681;28;19929;-75
2023/08/21 00:22:45;;;;;;;;;;;;;;;19.65;48.81;96179.63;4999459;28;19921;-75
2023/08/21 00:25:11;;;;;;;;;;;;;;;19.70;48.75;96182.47;4999506;28;20023;-75
2023/08/21 00:27:36;;;;;;;;;;;;;;;19.82;48.66;96185.25;4991819;28;20044;-73
2023/08/21 00:30:01;;;;;;;;;;;;;;;19.91;48.22;96180.38;4987348;28;19929;-73
2023/08/21 00:32:26;;;;;;;;;;;;;;;19.91;47.86;96181.22;4979352;28;20249;-75
2023/08/21 00:34:52;;;;;;;;;;;;;;;19.92;47.97;96177.44;4977253;28;20471;-76
2023/08/21 00:37:17;;;;;;;;;;;;;;;19.93;47.76;96181.00;4978225;28;19925;-74
2023/08/21 00:39:42;;;;;;;;;;;;;;;19.90;47.98;96176.88;4977609;28;20024;-75
2023/08/21 00:42:07;;;;;;;;;;;;;;;19.91;47.80;96172.28;4979802;28;19960;-74
2023/08/21 00:44:33;;;;;;;;;;;;;;;19.90;47.80;96176.03;4997713;28;20364;-75
2023/08/21 00:46:58;;;;;;;;;;;;;;;19.79;48.50;96172.19;4990185;28;19953;-74
2023/08/21 00:49:23;;;;;;;;;;;;;;;19.71;48.46;96176.00;4986474;28;20327;-75
2023/08/21 00:51:49;;;;;;;;;;;;;;;19.83;48.01;96178.81;5001520;28;20211;-75
2023/08/21 00:54:14;;;;;;;;;;;;;;;19.91;47.78;96180.38;4996692;28;20187;-74
2023/08/21 00:56:39;;;;;;;;;;;;;;;19.93;47.88;96181.00;4975146;28;19918;-73
2023/08/21 00:59:04;;;;;;;;;;;;;;;19.96;47.41;96175.16;4976326;28;19960;-76
2023/08/21 01:01:30;;;;;;;;;;;;;;;19.97;47.58;96174.94;4973269;28;20409;-76
2023/08/21 01:03:55;;;;;;;;;;;;;;;20.00;47.36;96176.38;4975738;28;20005;-75
2023/08/21 01:06:20;;;;;;;;;;;;;;;19.88;48.02;96178.16;4973934;28;20252;-74
2023/08/21 01:08:45;;;;;;;;;;;;;;;19.66;48.53;96176.69;5010734;28;19959;-75
2023/08/21 01:11:24;;;;;;;;;;;;;;;19.78;47.74;96181.38;4987388;28;20213;-75
2023/08/21 01:14:04;;;;;;;;;;;;;;;19.72;48.38;96183.88;4984184;28;19918;-75
2023/08/21 01:16:29;;;;;;;;;;;;;;;19.71;48.26;96184.09;4976973;28;19926;-75
2023/08/21 01:18:54;;;;;;;;;;;;;;;19.70;48.30;96187.88;4953986;28;19969;-73
2023/08/21 01:21:19;;;;;;;;;;;;;;;19.83;48.00;96192.31;4967018;28;19930;-75
2023/08/21 01:23:45;;;;;;;;;;;;;;;19.85;48.02;96188.34;4979902;28;19926;-75
2023/08/21 01:26:10;;;;;;;;;;;;;;;19.97;47.20;96198.44;4970937;28;20046;-75
2023/08/21 01:28:35;;;;;;;;;;;;;;;19.93;47.79;96197.19;4978247;28;20342;-76
2023/08/21 01:31:03;;;;;;;;;;;;;;;19.91;47.77;96196.59;4978239;28;20252;-75
2023/08/21 01:33:28;;;;;;;;;;;;;;;19.97;47.25;96199.28;4985365;28;20135;-75
2023/08/21 01:35:53;;;;;;;;;;;;;;;20.00;47.24;96197.97;4956273;28;20117;-75
2023/08/21 01:38:19;;;;;;;;;;;;;;;20.02;46.96;96195.06;4978614;28;19969;-75
2023/08/21 01:40:44;;;;;;;;;;;;;;;20.00;47.18;96197.97;4993705;28;20184;-73
2023/08/21 01:43:09;;;;;;;;;;;;;;;19.95;46.86;96197.78;4988495;28;19961;-75
2023/08/21 01:45:34;;;;;;;;;;;;;;;19.89;47.25;96193.28;4975225;28;20514;-75
2023/08/21 01:48:00;;;;;;;;;;;;;;;19.89;46.96;96201.41;4978368;28;20032;-75
2023/08/21 01:50:25;;;;;;;;;;;;;;;19.76;47.31;96202.34;4975095;28;19976;-73
2023/08/21 01:52:50;;;;;;;;;;;;;;;19.62;47.81;96205.19;4976755;28;19968;-73
2023/08/21 01:55:15;;;;;;;;;;;;;;;19.68;47.23;96196.19;4975659;28;20369;-76
2023/08/21 01:57:42;;;;;;;;;;;;;;;19.70;47.26;96198.66;4967402;28;19934;-72
2023/08/21 02:00:08;;;;;;;;;;;;;;;19.68;46.93;96193.50;4976527;28;19991;-76
2023/08/21 02:02:33;;;;;;;;;;;;;;;19.64;47.46;96204.97;4951592;28;20200;-75
2023/08/21 02:04:58;;;;;;;;;;;;;;;19.63;47.53;96195.19;4976361;28;20459;-75
2023/08/21 02:07:24;;;;;;;;;;;;;;;19.55;47.27;96197.13;4975712;28;19925;-74
2023/08/21 02:09:49;;;;;;;;;;;;;;;19.56;47.50;96198.81;4988526;28;19999;-72
2023/08/21 02:12:14;;;;;;;;;;;;;;;19.53;47.48;96201.09;4973978;28;19926;-74
2023/08/21 02:14:39;;;;;;;;;;;;;;;19.40;47.74;96200.19;4976133;28;19922;-76
2023/08/21 02:17:05;;;;;;;;;;;;;;;19.37;47.49;96195.22;4978081;28;20350;-74
2023/08/21 02:19:31;;;;;;;;;;;;;;;19.39;47.83;96192.31;4977764;28;20008;-73
2023/08/21 02:21:56;;;;;;;;;;;;;;;19.30;47.87;96189.88;4975968;28;20012;-75
2023/08/21 02:24:21;;;;;;;;;;;;;;;19.30;47.99;96187.19;4977610;28;19922;-74
2023/08/21 02:26:46;;;;;;;;;;;;;;;19.28;48.21;96191.97;4971720;28;20379;-76
2023/08/21 02:29:11;;;;;;;;;;;;;;;19.28;47.97;96188.47;4977873;28;19922;-76
2023/08/21 02:31:37;;;;;;;;;;;;;;;19.24;47.73;96185.31;4974834;28;20453;-73
2023/08/21 02:34:02;;;;;;;;;;;;;;;19.27;47.64;96187.63;4957121;28;20021;-76
2023/08/21 02:36:27;;;;;;;;;;;;;;;19.19;48.24;96183.31;4991715;28;20015;-75
2023/08/21 02:38:52;;;;;;;;;;;;;;;19.11;48.49;96190.84;5003524;28;19929;-74
2023/08/21 02:41:18;;;;;;;;;;;;;;;19.09;48.25;96188.34;5000449;28;20020;-75
2023/08/21 02:43:43;;;;;;;;;;;;;;;18.99;48.72;96186.13;4985452;28;20013;-72
2023/08/21 02:46:08;;;;;;;;;;;;;;;18.98;48.27;96186.34;4977766;28;19999;-75
2023/08/21 02:48:34;;;;;;;;;;;;;;;18.88;48.67;96193.06;4993126;28;20392;-73
2023/08/21 02:50:59;;;;;;;;;;;;;;;18.82;48.67;96196.63;4983237;28;19926;-73
2023/08/21 02:53:24;;;;;;;;;;;;;;;18.91;48.72;96194.50;4977832;28;20357;-72
2023/08/21 02:55:49;;;;;;;;;;;;;;;18.92;48.77;96185.34;4999006;28;20185;-76
2023/08/21 02:58:15;;;;;;;;;;;;;;;18.68;49.14;96198.56;5012730;28;19932;-76
2023/08/21 03:00:40;;;;;;;;;;;;;;;18.51;49.68;96196.34;5003843;28;20273;-75
2023/08/21 03:03:05;;;;;;;;;;;;;;;18.40;50.00;96189.78;4995404;28;19925;-74
2023/08/21 03:05:30;;;;;;;;;;;;;;;18.36;50.19;96188.53;4995474;28;19925;-75
2023/08/21 03:07:55;;;;;;;;;;;;;;;18.41;49.96;96187.91;4996923;28;19925;-74
2023/08/21 03:10:23;;;;;;;;;;;;;;;18.53;49.87;96191.56;4996842;28;20424;-74
2023/08/21 03:12:48;;;;;;;;;;;;;;;18.59;49.78;96187.22;4996990;28;19975;-73
2023/08/21 03:15:13;;;;;;;;;;;;;;;18.62;49.44;96192.19;4984306;28;20239;-75
2023/08/21 03:17:39;;;;;;;;;;;;;;;18.64;49.40;96198.19;4976062;28;19976;-72
2023/08/21 03:20:04;;;;;;;;;;;;;;;18.67;49.49;96181.56;4991122;28;19961;-74
2023/08/21 03:22:31;;;;;;;;;;;;;;;18.60;49.29;96196.97;4996079;28;19921;-73
2023/08/21 03:24:56;;;;;;;;;;;;;;;18.51;49.18;96193.66;4995569;28;20367;-74
2023/08/21 03:27:22;;;;;;;;;;;;;;;18.52;49.62;96189.91;4994976;28;19931;-75
2023/08/21 03:29:50;;;;;;;;;;;;;;;18.52;49.25;96189.91;4997198;28;20434;-75
2023/08/21 03:32:15;;;;;;;;;;;;;;;18.47;48.90;96189.75;4980069;28;19976;-73
2023/08/21 03:34:41;;;;;;;;;;;;;;;18.49;49.97;96189.53;4975948;28;20008;-72
2023/08/21 03:37:06;;;;;;;;;;;;;;;18.49;49.31;96194.94;4959847;28;20274;-74
2023/08/21 03:39:31;;;;;;;;;;;;;;;18.52;49.04;96187.22;4976725;28;20422;-75
2023/08/21 03:41:56;;;;;;;;;;;;;;;18.51;49.47;96187.44;4973370;28;20397;-75
2023/08/21 03:44:22;;;;;;;;;;;;;;;18.56;48.85;96184.94;4976659;28;19965;-75
2023/08/21 03:46:47;;;;;;;;;;;;;;;18.54;49.00;96187.00;4973810;28;19969;-74
2023/08/21 03:49:12;;;;;;;;;;;;;;;18.56;49.27;96185.75;4977115;28;19932;-75
2023/08/21 03:51:37;;;;;;;;;;;;;;;18.67;48.99;96186.94;4975990;28;19993;-74
2023/08/21 03:54:03;;;;;;;;;;;;;;;18.69;48.55;96186.75;4976987;28;19933;-74
2023/08/21 03:56:28;;;;;;;;;;;;;;;18.74;48.66;96189.63;4974397;28;19932;-74
2023/08/21 03:58:53;;;;;;;;;;;;;;;18.78;48.53;96188.16;4977253;28;19975;-74
2023/08/21 04:01:18;;;;;;;;;;;;;;;18.79;48.46;96186.25;4980149;28;20370;-75
2023/08/21 04:03:44;;;;;;;;;;;;;;;18.78;48.21;96182.75;4975622;28;19969;-72
2023/08/21 04:06:09;;;;;;;;;;;;;;;18.76;48.35;96182.13;4963455;28;19958;-75
2023/08/21 04:08:34;;;;;;;;;;;;;;;18.74;48.36;96183.41;4976208;28;20033;-75
2023/08/21 04:11:00;;;;;;;;;;;;;;;18.77;48.50;96181.09;4975578;28;20425;-73
2023/08/21 04:13:26;;;;;;;;;;;;;;;18.76;48.45;96187.53;4990683;28;20453;-76
2023/08/21 04:15:52;;;;;;;;;;;;;;;18.79;48.63;96184.41;4985583;28;20021;-73
2023/08/21 04:18:17;;;;;;;;;;;;;;;18.81;48.71;96190.41;4995341;28;19917;-75
2023/08/21 04:20:43;;;;;;;;;;;;;;;18.77;48.36;96185.66;4975505;28;19956;-74
2023/08/21 04:23:08;;;;;;;;;;;;;;;18.71;48.77;96197.31;4987718;28;19964;-74
2023/08/21 04:25:33;;;;;;;;;;;;;;;18.70;48.43;96196.50;4993195;28;19917;-75
2023/08/21 04:27:58;;;;;;;;;;;;;;;18.65;48.63;96189.06;4993680;28;20483;-75
2023/08/21 04:30:24;;;;;;;;;;;;;;;18.67;48.62;96194.22;4996484;28;20062;-75
2023/08/21 04:32:49;;;;;;;;;;;;;;;18.66;48.68;96189.91;4991643;28;19980;-74
2023/08/21 04:35:15;;;;;;;;;;;;;;;18.68;48.47;96193.19;5004334;28;19958;-74
2023/08/21 04:37:43;;;;;;;;;;;;;;;18.72;48.75;96193.56;5007526;28;20386;-72
2023/08/21 04:40:09;;;;;;;;;;;;;;;18.71;48.45;96192.75;4994318;28;19941;-74
2023/08/21 04:42:35;;;;;;;;;;;;;;;18.72;48.54;96189.00;4995722;28;19932;-75
2023/08/21 04:45:02;;;;;;;;;;;;;;;18.70;48.62;96193.81;4996830;28;19921;-73
2023/08/21 04:47:27;;;;;;;;;;;;;;;18.75;48.38;96190.44;5007154;28;19925;-75
2023/08/21 04:49:52;;;;;;;;;;;;;;;18.81;48.08;96198.50;5014198;28;20040;-74
2023/08/21 04:52:18;;;;;;;;;;;;;;;18.85;48.29;96206.97;4988229;28;20401;-75
2023/08/21 04:54:43;;;;;;;;;;;;;;;18.91;48.55;96202.59;4985463;28;20086;-74
2023/08/21 04:57:09;;;;;;;;;;;;;;;18.93;48.36;96198.63;4977663;28;19925;-74
2023/08/21 04:59:37;;;;;;;;;;;;;;;18.99;47.88;96196.94;4998810;28;19932;-75
2023/08/21 05:02:02;;;;;;;;;;;;;;;19.04;47.91;96197.09;4995792;28;20047;-76
2023/08/21 05:04:28;;;;;;;;;;;;;;;19.12;47.95;96198.72;5004781;28;20398;-76
2023/08/21 05:06:53;;;;;;;;;;;;;;;19.21;47.55;96208.19;4994489;28;20389;-76
2023/08/21 05:09:18;;;;;;;;;;;;;;;19.30;47.46;96200.69;5006902;28;20263;-76
2023/08/21 05:11:43;;;;;;;;;;;;;;;19.43;47.36;96198.91;4985316;28;19969;-76
2023/08/21 05:14:09;;;;;;;;;;;;;;;19.56;47.24;96206.91;4984166;28;19922;-76
2023/08/21 05:16:34;;;;;;;;;;;;;;;19.65;47.29;96198.53;4976258;28;20367;-76
2023/08/21 05:18:59;;;;;;;;;;;;;;;19.78;46.65;96200.28;4976980;28;20363;-76
2023/08/21 05:21:25;;;;;;;;;;;;;;;19.88;46.91;96202.47;4973931;28;19936;-76
2023/08/21 05:23:50;;;;;;;;;;;;;;;19.98;47.12;96197.38;4984860;28;19983;-76
2023/08/21 05:26:15;;;;;;;;;;;;;;;20.07;46.93;96197.91;4987706;28;20381;-76
2023/08/21 05:28:40;;;;;;;;;;;;;;;20.18;46.94;96204.44;4988576;28;19926;-76
2023/08/21 05:31:06;;;;;;;;;;;;;;;20.29;46.74;96209.09;4983980;28;20263;-76
2023/08/21 05:33:31;;;;;;;;;;;;;;;20.42;46.24;96204.56;4978618;28;19929;-76
2023/08/21 05:35:56;;;;;;;;;;;;;;;20.55;46.44;96206.28;4975954;28;19917;-76
2023/08/21 05:38:22;;;;;;;;;;;;;;;20.64;46.61;96206.81;4972507;28;20082;-76
2023/08/21 05:40:47;;;;;;;;;;;;;;;20.76;45.86;96210.38;4977962;28;19957;-76
2023/08/21 05:43:13;;;;;;;;;;;;;;;20.89;45.58;96211.25;4972746;28;20204;-76
2023/08/21 05:45:38;;;;;;;;;;;;;;;21.01;45.36;96201.31;4978362;28;19926;-76
2023/08/21 05:48:03;;;;;;;;;;;;;;;21.06;45.79;96212.25;4989548;28;19929;-76
2023/08/21 05:50:29;;;;;;;;;;;;;;;21.14;45.46;96213.78;4996361;28;19917;-76
2023/08/21 05:52:54;;;;;;;;;;;;;;;21.19;45.15;96213.09;4992824;28;19952;-76
2023/08/21 05:55:19;;;;;;;;;;;;;;;21.28;45.08;96208.22;4995192;28;20537;-76
2023/08/21 05:57:44;;;;;;;;;;;;;;;21.36;44.66;96213.28;4994348;28;20409;-76
2023/08/21 06:00:10;;;;;;;;;;;;;;;21.53;44.06;96210.72;4988406;28;19933;-73
2023/08/21 06:02:35;;;;;;;;;;;;;;;21.53;44.20;96208.00;4988578;28;20011;-73
2023/08/21 06:05:01;;;;;;;;;;;;;;;21.63;43.33;96207.44;4984484;28;20028;-74
2023/08/21 06:07:26;;;;;;;;;;;;;;;21.69;42.73;96205.66;4985534;28;20204;-73
2023/08/21 06:09:51;;;;;;;;;;;;;;;21.81;42.58;96216.47;4985216;28;20414;-72
2023/08/21 06:12:18;;;;;;;;;;;;;;;21.89;43.50;96214.25;5000612;28;19971;-72
2023/08/21 06:14:43;;;;;;;;;;;;;;;21.92;42.54;96218.41;5000456;28;21049;-71
2023/08/21 06:17:08;;;;;;;;;;;;;;;21.98;42.75;96213.91;4986044;28;20187;-72
2023/08/21 06:19:34;;;;;;;;;;;;;;;22.00;42.44;96219.94;4994149;28;20040;-71
2023/08/21 06:21:59;;;;;;;;;;;;;;;22.02;43.20;96223.22;4994114;28;20233;-72
2023/08/21 06:24:24;;;;;;;;;;;;;;;22.04;42.50;96223.81;4990049;28;19976;-72
2023/08/21 06:26:50;;;;;;;;;;;;;;;22.15;42.74;96227.56;4982199;28;20495;-73
2023/08/21 06:29:15;;;;;;;;;;;;;;;22.22;42.07;96225.56;4993915;28;19960;-72
2023/08/21 06:31:41;;;;;;;;;;;;;;;22.35;42.25;96226.34;4988296;28;20689;-72
2023/08/21 06:34:06;;;;;;;;;;;;;;;22.55;41.70;96227.84;4985068;28;19925;-71
2023/08/21 06:36:31;;;;;;;;;;;;;;;22.64;42.23;96238.09;4983579;28;19925;-72
2023/08/21 06:38:56;;;;;;;;;;;;;;;22.82;40.69;96230.00;4985569;28;20028;-72
2023/08/21 06:41:22;;;;;;;;;;;;;;;23.03;40.20;96234.75;4985730;28;19957;-72
2023/08/21 06:43:47;;;;;;;;;;;;;;;23.20;39.73;96233.16;4982519;28;20353;-72
2023/08/21 06:46:12;;;;;;;;;;;;;;;23.37;39.64;96231.28;4987031;28;19972;-72
2023/08/21 06:48:38;;;;;;;;;;;;;;;23.43;40.88;96226.75;4984941;28;19969;-72
2023/08/21 06:51:03;;;;;;;;;;;;;;;23.52;40.62;96224.47;4979125;28;20414;-70
2023/08/21 06:53:28;;;;;;;;;;;;;;;23.71;39.46;96225.03;4966600;28;20339;-71
2023/08/21 06:55:53;;;;;;;;;;;;;;;23.91;39.46;96224.53;4965052;28;19926;-73
2023/08/21 06:58:19;;;;;;;;;;;;;;;23.96;38.07;96223.75;4968902;28;20052;-72
2023/08/21 07:00:44;;;;;;;;;;;;;;;24.17;38.38;96218.63;4985032;28;20576;-72
2023/08/21 07:03:09;;;;;;;;;;;;;;;24.38;37.45;96222.47;4984548;28;19930;-72
2023/08/21 07:05:34;;;;;;;;;;;;;;;24.51;38.22;96226.69;4983135;28;19932;-72
2023/08/21 07:08:00;;;;;;;;;;;;;;;24.76;38.22;96224.50;4985298;28;19926;-72
2023/08/21 07:10:25;;;;;;;;;;;;;;;25.00;38.20;96230.53;4984600;28;19987;-72
2023/08/21 07:12:50;;;;;;;;;;;;;;;24.64;37.54;96232.84;4984899;28;20507;-71
2023/08/21 07:15:16;;;;;;;;;;;;;;;24.90;38.26;96220.34;4985462;28;19936;-72
2023/08/21 07:17:41;;;;;;;;;;;;;;;24.72;38.02;96226.94;4985098;28;20028;-72
2023/08/21 07:20:06;;;;;;;;;;;;;;;24.47;38.69;96227.47;4985658;28;19977;-74
2023/08/21 07:22:32;;;;;;;;;;;;;;;25.03;37.80;96224.56;4983197;28;19940;-74
2023/08/21 07:24:57;;;;;;;;;;;;;;;25.12;37.77;96224.91;4984716;28;19985;-74
2023/08/21 07:27:22;;;;;;;;;;;;;;;25.51;36.81;96225.81;4984217;28;19969;-74
2023/08/21 07:29:48;;;;;;;;;;;;;;;25.37;36.85;96234.41;4986480;28;20070;-74
2023/08/21 07:32:13;;;;;;;;;;;;;;;25.86;35.38;96232.59;4984070;28;19929;-74
2023/08/21 07:34:38;;;;;;;;;;;;;;;25.01;36.93;96231.34;4985207;28;19940;-73
2023/08/21 07:37:03;;;;;;;;;;;;;;;24.65;38.25;96235.31;4984696;28;20586;-74
2023/08/21 07:39:29;;;;;;;;;;;;;;;25.36;37.21;96230.03;4984975;28;20267;-73
2023/08/21 07:41:54;;;;;;;;;;;;;;;25.30;37.51;96222.88;4985810;28;20414;-74
2023/08/21 07:44:19;;;;;;;;;;;;;;;24.44;38.80;96229.59;4985387;28;19929;-74
2023/08/21 07:46:44;;;;;;;;;;;;;;;24.12;39.84;96226.69;4984797;28;19953;-73
2023/08/21 07:49:09;;;;;;;;;;;;;;;24.95;38.12;96233.19;4985066;28;20612;-74
2023/08/21 07:51:35;;;;;;;;;;;;;;;24.73;38.09;96228.56;4984136;28;19965;-73
2023/08/21 07:54:00;;;;;;;;;;;;;;;24.70;38.51;96239.97;4983102;28;20051;-74
2023/08/21 07:56:26;;;;;;;;;;;;;;;25.55;36.80;96240.56;4984511;28;20188;-74
2023/08/21 07:58:51;;;;;;;;;;;;;;;25.49;37.12;96233.44;4984077;28;20018;-73
2023/08/21 08:01:16;;;;;;;;;;;;;;;25.62;37.30;96238.44;4984346;28;19980;-73
2023/08/21 08:03:41;;;;;;;;;;;;;;;25.42;37.36;96234.44;4985665;28;20175;-73
2023/08/21 08:06:06;;;;;;;;;;;;;;;26.21;35.99;96227.66;4988119;28;20740;-73
2023/08/21 08:08:32;;;;;;;;;;;;;;;26.07;35.57;96235.50;4990278;28;20442;-74
2023/08/21 08:11:00;;;;;;;;;;;;;;;26.44;35.91;96228.31;4985258;28;19929;-73
2023/08/21 08:13:26;;;;;;;;;;;;;;;24.65;39.75;96232.59;4986624;28;19961;-74
2023/08/21 08:15:51;;;;;;;;;;;;;;;24.93;38.46;96238.91;4981526;28;20067;-74
2023/08/21 08:18:16;;;;;;;;;;;;;;;26.05;35.20;96240.38;4985636;28;20445;-73
2023/08/21 08:20:41;;;;;;;;;;;;;;;26.28;35.90;96236.44;4986405;28;20765;-73
2023/08/21 08:23:07;;;;;;;;;;;;;;;25.73;36.38;96236.63;4987724;28;19925;-74
2023/08/21 08:25:33;;;;;;;;;;;;;;;25.43;36.46;96232.53;4989287;28;19956;-74
2023/08/21 08:27:58;;;;;;;;;;;;;;;24.63;38.11;96240.16;4987129;28;20365;-74
2023/08/21 08:30:24;;;;;;;;;;;;;;;24.37;39.44;96233.59;4986625;28;19925;-73
2023/08/21 08:32:49;;;;;;;;;;;;;;;24.82;39.26;96239.84;4988309;28;20492;-73
2023/08/21 08:35:14;;;;;;;;;;;;;;;25.44;37.71;96234.19;4987405;28;20345;-73
2023/08/21 08:37:43;;;;;;;;;;;;;;;26.20;36.66;96237.75;4987079;28;19947;-73
2023/08/21 08:40:09;;;;;;;;;;;;;;;26.66;35.36;96233.59;4987072;28;20531;-74
2023/08/21 08:42:34;;;;;;;;;;;;;;;25.53;36.16;96238.09;4988480;28;19961;-73
2023/08/21 08:44:59;;;;;;;;;;;;;;;26.35;36.14;96241.66;4988315;28;20036;-73
2023/08/21 08:47:25;;;;;;;;;;;;;;;24.38;39.66;96237.97;4986217;28;19929;-73
2023/08/21 08:49:50;;;;;;;;;;;;;;;24.56;39.81;96242.25;4988571;28;20278;-73
2023/08/21 08:52:17;;;;;;;;;;;;;;;25.52;36.89;96241.09;4985929;28;19965;-73
2023/08/21 08:54:42;;;;;;;;;;;;;;;25.03;38.25;96234.63;5001592;28;21419;-73
2023/08/21 08:57:07;;;;;;;;;;;;;;;26.15;36.89;96228.72;4987532;28;19948;-74
2023/08/21 08:59:33;;;;;;;;;;;;;;;26.47;36.42;96234.06;4987410;28;19932;-74
2023/08/21 09:01:58;;;;;;;;;;;;;;;27.23;34.45;96239.22;4988779;28;19926;-74
2023/08/21 09:04:23;;;;;;;;;;;;;;;26.73;35.10;96241.53;4986105;28;19934;-74
2023/08/21 09:06:48;;;;;;;;;;;;;;;27.28;34.65;96240.31;4985462;28;20128;-73
2023/08/21 09:09:14;;;;;;;;;;;;;;;27.59;34.04;96243.03;4987983;28;20405;-73
2023/08/21 09:11:42;;;;;;;;;;;;;;;26.88;34.68;96241.59;4986737;28;20337;-74
2023/08/21 09:14:07;;;;;;;;;;;;;;;26.38;35.66;96249.31;4986135;28;19921;-74
2023/08/21 09:16:32;;;;;;;;;;;;;;;26.43;35.27;96241.13;4991509;28;20180;-74
2023/08/21 09:18:58;;;;;;;;;;;;;;;25.47;37.06;96239.16;4987638;28;20387;-74
2023/08/21 09:21:24;;;;;;;;;;;;;;;26.33;36.21;96244.63;4987410;28;19934;-74
2023/08/21 09:23:50;;;;;;;;;;;;;;;27.67;33.60;96242.56;4990724;28;20472;-76
2023/08/21 09:26:22;;;;;;;;;;;;;;;28.17;32.32;96241.13;4994093;28;19918;-77
2023/08/21 09:28:50;;;;;;;;;;;;;;;28.58;30.61;96235.47;4997146;28;19964;-77
2023/08/21 09:31:16;;;;;;;;;;;;;;;28.78;30.31;96233.78;4994210;28;20040;-76
2023/08/21 09:33:41;;;;;;;;;;;;;;;27.99;32.13;96230.47;4976886;28;19917;-77
2023/08/21 09:36:07;;;;;;;;;;;;;;;28.64;30.95;96217.94;4995168;28;19926;-76
2023/08/21 09:38:35;;;;;;;;;;;;;;;29.13;30.47;96220.16;4979364;28;19918;-77
2023/08/21 09:41:00;;;;;;;;;;;;;;;28.95;29.11;96229.88;4996951;28;19996;-77
2023/08/21 09:43:26;;;;;;;;;;;;;;;29.03;30.26;96238.28;4997559;28;20525;-77
2023/08/21 09:45:57;;;;;;;;;;;;;;;28.58;30.38;96238.22;4996417;28;19913;-77
2023/08/21 09:48:29;;;;;;;;;;;;;;;27.05;33.54;96243.25;4996014;28;19928;-77
2023/08/21 09:50:55;;;;;;;;;;;;;;;26.15;35.10;96236.91;4988616;28;19921;-77
2023/08/21 09:53:22;;;;;;;;;;;;;;;26.02;35.17;96238.19;4994009;28;20315;-76
2023/08/21 09:55:47;;;;;;;;;;;;;;;26.28;34.93;96241.06;4996312;28;19921;-76
2023/08/21 09:58:13;;;;;;;;;;;;;;;26.25;34.47;96242.41;4993041;28;19947;-76
2023/08/21 10:00:39;;;;;;;;;;;;;;;25.77;36.16;96245.09;4979695;28;20048;-76
2023/08/21 10:03:05;;;;;;;;;;;;;;;25.67;36.20;96229.47;4993620;28;19937;-76
2023/08/21 10:05:31;;;;;;;;;;;;;;;25.29;35.94;96241.13;4997658;28;19922;-76
2023/08/21 10:07:57;;;;;;;;;;;;;;;24.83;36.74;96239.59;4993629;28;20413;-76
2023/08/21 10:10:22;;;;;;;;;;;;;;;25.16;38.10;96236.13;4995663;28;19924;-76
2023/08/21 10:12:48;;;;;;;;;;;;;;;24.09;38.52;96238.91;4994809;28;20023;-76
2023/08/21 10:15:13;;;;;;;;;;;;;;;23.98;40.22;96237.94;4995716;28;19929;-76
2023/08/21 10:17:39;;;;;;;;;;;;;;;24.23;39.34;96224.97;4994913;28;20014;-76
2023/08/21 10:20:05;;;;;;;;;;;;;;;24.95;37.19;96228.56;4996994;28;19925;-76
2023/08/21 10:22:57;;;;;;;;;;;;;;;25.56;35.82;96229.41;4993409;28;19930;-76
2023/08/21 10:25:28;;;;;;;;;;;;;;;25.95;36.27;96227.47;4991079;28;20498;-77
2023/08/21 10:27:54;;;;;;;;;;;;;;;25.99;35.89;96223.97;4995935;28;20244;-76
2023/08/21 10:30:20;;;;;;;;;;;;;;;25.91;35.50;96226.38;4996794;28;19921;-76
2023/08/21 10:32:49;;;;;;;;;;;;;;;26.26;34.96;96232.31;4974260;28;19921;-76
2023/08/21 10:35:35;;;;;;;;;;;;;;;26.52;35.21;96235.16;4996751;28;20443;-76
2023/08/21 10:38:13;;;;;;;;;;;;;;;26.82;33.86;96231.72;4992629;28;19956;-77
2023/08/21 10:40:39;;;;;;;;;;;;;;;27.32;33.05;96225.03;4994266;28;20358;-77
2023/08/21 10:43:04;;;;;;;;;;;;;;;28.06;31.54;96219.22;4991535;28;20031;-77
2023/08/21 10:45:29;;;;;;;;;;;;;;;27.03;32.44;96225.50;4995673;28;20016;-77
2023/08/21 10:47:58;;;;;;;;;;;;;;;28.30;30.91;96223.31;4992489;28;19933;-77
2023/08/21 10:50:23;;;;;;;;;;;;;;;27.72;32.74;96234.34;4991185;28;19933;-76
2023/08/21 10:52:49;;;;;;;;;;;;;;;27.99;32.56;96230.47;4997165;28;20409;-74
2023/08/21 10:55:14;;;;;;;;;;;;;;;28.26;32.35;96226.59;4994268;28;20039;-75
2023/08/21 10:57:42;;;;;;;;;;;;;;;27.43;35.44;96237.56;4996855;28;20012;-74
2023/08/21 11:00:11;;;;;;;;;;;;;;;27.12;36.24;96232.09;4995401;28;19921;-75
2023/08/21 11:02:37;;;;;;;;;;;;;;;27.22;35.94;96242.25;4995257;28;19921;-73
2023/08/21 11:05:03;;;;;;;;;;;;;;;28.54;31.97;96227.03;4996474;28;19930;-77
2023/08/21 11:07:28;;;;;;;;;;;;;;;28.03;35.09;96231.53;4990361;28;19948;-74
2023/08/21 11:09:54;;;;;;;;;;;;;;;27.44;34.90;96227.47;4995173;28;19993;-76
2023/08/21 11:12:20;;;;;;;;;;;;;;;28.09;30.95;96231.53;4976064;28;20202;-73
2023/08/21 11:14:45;;;;;;;;;;;;;;;28.45;28.89;96230.63;4981527;28;19921;-77
2023/08/21 11:17:10;;;;;;;;;;;;;;;27.96;30.54;96228.28;4975076;28;19948;-76
2023/08/21 11:19:36;;;;;;;;;;;;;;;28.00;29.69;96226.63;4993537;28;19921;-76
2023/08/21 11:22:05;;;;;;;;;;;;;;;27.86;30.56;96226.38;4992100;28;20239;-75
2023/08/21 11:24:37;;;;;;;;;;;;;;;27.72;31.33;96234.34;4960480;28;19988;-75
2023/08/21 11:27:04;;;;;;;;;;;;;;;27.38;32.10;96235.69;4974855;28;19988;-75
2023/08/21 11:29:30;;;;;;;;;;;;;;;27.54;30.82;96229.38;4976974;28;19922;-75
2023/08/21 11:31:55;;;;;;;;;;;;;;;27.59;30.99;96235.69;4975624;28;19933;-76
2023/08/21 11:34:21;;;;;;;;;;;;;;;26.84;34.04;96234.19;4975986;28;19924;-73
2023/08/21 11:36:46;;;;;;;;;;;;;;;26.66;33.53;96230.88;4994147;28;20828;-74
2023/08/21 11:39:11;;;;;;;;;;;;;;;26.95;32.32;96233.13;4986923;28;19957;-76
2023/08/21 11:41:52;;;;;;;;;;;;;;;27.33;31.45;96230.19;4971706;28;19980;-75
2023/08/21 11:44:18;;;;;;;;;;;;;;;27.86;30.89;96218.19;4975424;28;19922;-74
2023/08/21 11:46:43;;;;;;;;;;;;;;;28.50;29.97;96225.94;4977246;28;19957;-73
2023/08/21 11:49:08;;;;;;;;;;;;;;;29.38;29.10;96218.34;4976593;28;20238;-77
2023/08/21 11:51:40;;;;;;;;;;;;;;;29.91;28.04;96217.59;4994893;28;20292;-76
2023/08/21 11:54:05;;;;;;;;;;;;;;;30.12;27.32;96216.59;4993937;28;19987;-73
2023/08/21 11:56:30;;;;;;;;;;;;;;;29.54;28.59;96222.59;4993966;28;20497;-75
2023/08/21 11:58:56;;;;;;;;;;;;;;;29.29;29.34;96207.16;4993359;28;20321;-75
2023/08/21 12:01:21;;;;;;;;;;;;;;;28.98;29.11;96212.84;4996664;28;19965;-76
2023/08/21 12:03:54;;;;;;;;;;;;;;;29.30;28.75;96209.63;4995356;28;20243;-77
2023/08/21 12:06:19;;;;;;;;;;;;;;;30.07;28.12;96221.03;4994518;28;20007;-77
2023/08/21 12:08:44;;;;;;;;;;;;;;;29.90;29.80;96215.16;4993760;28;20028;-75
2023/08/21 12:11:09;;;;;;;;;;;;;;;29.47;29.24;96222.13;4995606;28;20289;-76
2023/08/21 12:13:34;;;;;;;;;;;;;;;28.76;28.80;96217.63;4994455;28;20303;-74
2023/08/21 12:16:00;;;;;;;;;;;;;;;28.67;28.63;96217.41;4995637;28;20334;-75
2023/08/21 12:18:25;;;;;;;;;;;;;;;28.72;29.26;96211.06;4995117;28;19921;-75
2023/08/21 12:20:51;;;;;;;;;;;;;;;29.02;27.56;96217.47;4995778;28;19925;-76
2023/08/21 12:23:16;;;;;;;;;;;;;;;29.11;28.76;96212.22;4992449;28;20000;-76
2023/08/21 12:25:41;;;;;;;;;;;;;;;29.74;27.54;96209.81;4996555;28;19961;-75
2023/08/21 12:28:07;;;;;;;;;;;;;;;29.69;28.53;96207.97;4996225;28;20504;-74
2023/08/21 12:30:32;;;;;;;;;;;;;;;30.49;26.37;96206.84;4996167;28;19961;-74
2023/08/21 12:32:57;;;;;;;;;;;;;;;31.24;25.30;96211.88;4995930;28;20168;-77
2023/08/21 12:35:22;;;;;;;;;;;;;;;31.31;24.82;96208.75;4986414;28;19953;-74
2023/08/21 12:37:48;;;;;;;;;;;;;;;31.88;24.65;96204.25;4975133;28;20158;-74
2023/08/21 12:40:13;;;;;;;;;;;;;;;31.14;25.04;96206.53;4974895;28;20354;-76